Echo, Oregon
Current Conditions -  °F | °C
As of 12:53 AM on Thursday 27 Nov 2014 (Local Time) from KHRI Reporting Station
Overcast Overcast  
Wind Chill: 44°   Ceiling: 10000
Heat Index: 47°   Visibility: 10mi
Dew Point: 43°   Wind: 7mph
Humidity: 86%   Direction: 200°SSW
Pressure: 29.96"   Gusts: NA
Location:  45.74°N, 119.2°W
Report Text: KHRI 270853Z AUTO 20006KT 10SM OVC100 08/06 A2996 RMK AO2 SLP143 T00830061 58011
Loading
Personal Weather Stations






























Interactive Weather Map New forecast layout! Learn more

10-Day Weather Forecast

Advertisements
Track Severe Weather on mobile